sensor_id;sensor_type;location;lat;lon;timestamp;temperature;humidity
74923;HTU21D;64715;44.760;37.678;2023-08-07T00:00:01;23.81;75.89
74923;HTU21D;64715;44.760;37.678;2023-08-07T00:01:06;23.80;75.87
74923;HTU21D;64715;44.760;37.678;2023-08-07T00:02:07;23.81;75.91
74923;HTU21D;64715;44.760;37.678;2023-08-07T00:03:08;23.82;76.03
74923;HTU21D;64715;44.760;37.678;2023-08-07T00:04:08;23.81;76.08
74923;HTU21D;64715;44.760;37.678;2023-08-07T00:05:09;23.82;76.13
74923;HTU21D;64715;44.760;37.678;2023-08-07T00:06:10;23.83;76.38
74923;HTU21D;64715;44.760;37.678;2023-08-07T00:07:11;23.86;76.64
74923;HTU21D;64715;44.760;37.678;2023-08-07T00:08:12;23.87;76.89
74923;HTU21D;64715;44.760;37.678;2023-08-07T00:09:13;23.86;77.06
74923;HTU21D;64715;44.760;37.678;2023-08-07T00:10:14;23.89;77.19
74923;HTU21D;64715;44.760;37.678;2023-08-07T00:11:15;23.89;77.41
74923;HTU21D;64715;44.760;37.678;2023-08-07T00:12:16;23.89;77.39
74923;HTU21D;64715;44.760;37.678;2023-08-07T00:13:17;23.91;77.52
74923;HTU21D;64715;44.760;37.678;2023-08-07T00:14:18;23.92;77.64
74923;HTU21D;64715;44.760;37.678;2023-08-07T00:15:19;23.94;77.74
74923;HTU21D;64715;44.760;37.678;2023-08-07T00:16:20;23.96;77.85
74923;HTU21D;64715;44.760;37.678;2023-08-07T00:17:21;23.95;77.90
74923;HTU21D;64715;44.760;37.678;2023-08-07T00:18:22;23.98;78.05
74923;HTU21D;64715;44.760;37.678;2023-08-07T00:19:23;23.99;78.12
74923;HTU21D;64715;44.760;37.678;2023-08-07T00:20:24;24.01;78.35
74923;HTU21D;64715;44.760;37.678;2023-08-07T00:21:25;24.05;78.50
74923;HTU21D;64715;44.760;37.678;2023-08-07T00:22:26;24.09;78.83
74923;HTU21D;64715;44.760;37.678;2023-08-07T00:23:27;24.12;78.88
74923;HTU21D;64715;44.760;37.678;2023-08-07T00:24:27;24.15;79.08
74923;HTU21D;64715;44.760;37.678;2023-08-07T00:25:28;24.18;79.27
74923;HTU21D;64715;44.760;37.678;2023-08-07T00:26:29;24.21;79.29
74923;HTU21D;64715;44.760;37.678;2023-08-07T00:27:33;24.24;79.33
74923;HTU21D;64715;44.760;37.678;2023-08-07T00:28:34;24.26;79.27
74923;HTU21D;64715;44.760;37.678;2023-08-07T00:29:35;24.28;79.22
74923;HTU21D;64715;44.760;37.678;2023-08-07T00:30:36;24.29;79.20
74923;HTU21D;64715;44.760;37.678;2023-08-07T00:31:37;24.29;79.24
74923;HTU21D;64715;44.760;37.678;2023-08-07T00:32:38;24.31;79.31
74923;HTU21D;64715;44.760;37.678;2023-08-07T00:33:40;24.33;79.19
74923;HTU21D;64715;44.760;37.678;2023-08-07T00:34:42;24.33;79.24
74923;HTU21D;64715;44.760;37.678;2023-08-07T00:35:44;24.33;79.11
74923;HTU21D;64715;44.760;37.678;2023-08-07T00:36:45;24.33;79.08
74923;HTU21D;64715;44.760;37.678;2023-08-07T00:37:45;24.33;78.98
74923;HTU21D;64715;44.760;37.678;2023-08-07T00:38:46;24.33;79.04
74923;HTU21D;64715;44.760;37.678;2023-08-07T00:39:48;24.33;78.94
74923;HTU21D;64715;44.760;37.678;2023-08-07T00:40:49;24.33;78.99
74923;HTU21D;64715;44.760;37.678;2023-08-07T00:41:50;24.32;78.94
74923;HTU21D;64715;44.760;37.678;2023-08-07T00:42:51;24.32;78.80
74923;HTU21D;64715;44.760;37.678;2023-08-07T00:43:52;24.32;78.85
74923;HTU21D;64715;44.760;37.678;2023-08-07T00:44:53;24.31;78.85
74923;HTU21D;64715;44.760;37.678;2023-08-07T00:45:54;24.29;78.72
74923;HTU21D;64715;44.760;37.678;2023-08-07T00:46:55;24.27;78.80
74923;HTU21D;64715;44.760;37.678;2023-08-07T00:47:56;24.28;78.66
74923;HTU21D;64715;44.760;37.678;2023-08-07T00:48:57;24.26;78.52
74923;HTU21D;64715;44.760;37.678;2023-08-07T00:49:59;24.24;78.51
74923;HTU21D;64715;44.760;37.678;2023-08-07T00:51:00;24.23;78.53
74923;HTU21D;64715;44.760;37.678;2023-08-07T00:52:02;24.20;78.56
74923;HTU21D;64715;44.760;37.678;2023-08-07T00:53:04;24.20;78.40
74923;HTU21D;64715;44.760;37.678;2023-08-07T00:54:05;24.19;78.47
74923;HTU21D;64715;44.760;37.678;2023-08-07T00:55:08;24.16;78.48
74923;HTU21D;64715;44.760;37.678;2023-08-07T00:56:10;24.15;78.43
74923;HTU21D;64715;44.760;37.678;2023-08-07T00:57:12;24.13;78.35
74923;HTU21D;64715;44.760;37.678;2023-08-07T00:58:15;24.11;78.23
74923;HTU21D;64715;44.760;37.678;2023-08-07T00:59:16;24.10;78.32
74923;HTU21D;64715;44.760;37.678;2023-08-07T01:00:18;24.08;78.35
74923;HTU21D;64715;44.760;37.678;2023-08-07T01:01:21;24.06;78.43
74923;HTU21D;64715;44.760;37.678;2023-08-07T01:02:22;24.05;78.45
74923;HTU21D;64715;44.760;37.678;2023-08-07T01:03:23;24.04;78.37
74923;HTU21D;64715;44.760;37.678;2023-08-07T01:04:24;24.03;78.54
74923;HTU21D;64715;44.760;37.678;2023-08-07T01:05:25;24.01;78.60
74923;HTU21D;64715;44.760;37.678;2023-08-07T01:06:26;24.00;78.53
74923;HTU21D;64715;44.760;37.678;2023-08-07T01:07:27;23.99;78.55
74923;HTU21D;64715;44.760;37.678;2023-08-07T01:08:28;23.96;78.54
74923;HTU21D;64715;44.760;37.678;2023-08-07T01:09:29;23.95;78.65
74923;HTU21D;64715;44.760;37.678;2023-08-07T01:11:01;23.92;78.75
74923;HTU21D;64715;44.760;37.678;2023-08-07T01:12:15;23.92;78.47
74923;HTU21D;64715;44.760;37.678;2023-08-07T01:13:24;23.88;78.47
74923;HTU21D;64715;44.760;37.678;2023-08-07T01:15:55;23.82;78.35
74923;HTU21D;64715;44.760;37.678;2023-08-07T01:17:11;23.82;78.28
74923;HTU21D;64715;44.760;37.678;2023-08-07T01:18:15;23.77;78.30
74923;HTU21D;64715;44.760;37.678;2023-08-07T01:19:24;23.75;78.50
74923;HTU21D;64715;44.760;37.678;2023-08-07T01:20:25;23.72;78.33
74923;HTU21D;64715;44.760;37.678;2023-08-07T01:21:26;23.72;78.41
74923;HTU21D;64715;44.760;37.678;2023-08-07T01:22:27;23.70;78.40
74923;HTU21D;64715;44.760;37.678;2023-08-07T01:23:28;23.68;78.49
74923;HTU21D;64715;44.760;37.678;2023-08-07T01:24:29;23.66;78.43
74923;HTU21D;64715;44.760;37.678;2023-08-07T01:25:30;23.66;78.44
74923;HTU21D;64715;44.760;37.678;2023-08-07T01:26:32;23.65;78.43
74923;HTU21D;64715;44.760;37.678;2023-08-07T01:27:37;23.62;78.47
74923;HTU21D;64715;44.760;37.678;2023-08-07T01:28:42;23.61;78.51
74923;HTU21D;64715;44.760;37.678;2023-08-07T01:29:57;23.59;78.55
74923;HTU21D;64715;44.760;37.678;2023-08-07T01:31:03;23.58;78.53
74923;HTU21D;64715;44.760;37.678;2023-08-07T01:32:08;23.57;78.72
74923;HTU21D;64715;44.760;37.678;2023-08-07T01:33:32;23.60;78.87
74923;HTU21D;64715;44.760;37.678;2023-08-07T01:34:36;23.60;78.83
74923;HTU21D;64715;44.760;37.678;2023-08-07T01:35:47;23.59;79.14
74923;HTU21D;64715;44.760;37.678;2023-08-07T01:36:49;23.64;79.25
74923;HTU21D;64715;44.760;37.678;2023-08-07T01:37:52;23.65;79.40
74923;HTU21D;64715;44.760;37.678;2023-08-07T01:38:55;23.67;79.58
74923;HTU21D;64715;44.760;37.678;2023-08-07T01:39:59;23.68;79.62
74923;HTU21D;64715;44.760;37.678;2023-08-07T01:41:01;23.71;79.70
74923;HTU21D;64715;44.760;37.678;2023-08-07T01:42:04;23.75;79.86
74923;HTU21D;64715;44.760;37.678;2023-08-07T01:43:05;23.75;80.14
74923;HTU21D;64715;44.760;37.678;2023-08-07T01:44:06;23.77;80.10
74923;HTU21D;64715;44.760;37.678;2023-08-07T01:45:08;23.80;79.98
74923;HTU21D;64715;44.760;37.678;2023-08-07T01:46:10;23.80;80.03
74923;HTU21D;64715;44.760;37.678;2023-08-07T01:47:11;23.80;79.95
74923;HTU21D;64715;44.760;37.678;2023-08-07T01:48:12;23.80;79.78
74923;HTU21D;64715;44.760;37.678;2023-08-07T01:49:13;23.82;79.74
74923;HTU21D;64715;44.760;37.678;2023-08-07T01:50:15;23.81;79.69
74923;HTU21D;64715;44.760;37.678;2023-08-07T01:51:15;23.81;79.62
74923;HTU21D;64715;44.760;37.678;2023-08-07T01:52:16;23.80;79.72
74923;HTU21D;64715;44.760;37.678;2023-08-07T01:53:17;23.80;79.73
74923;HTU21D;64715;44.760;37.678;2023-08-07T01:54:18;23.80;79.74
74923;HTU21D;64715;44.760;37.678;2023-08-07T01:55:20;23.79;79.69
74923;HTU21D;64715;44.760;37.678;2023-08-07T01:56:30;23.77;79.58
74923;HTU21D;64715;44.760;37.678;2023-08-07T01:57:31;23.76;79.53
74923;HTU21D;64715;44.760;37.678;2023-08-07T01:58:32;23.74;79.56
74923;HTU21D;64715;44.760;37.678;2023-08-07T01:59:33;23.73;79.56
74923;HTU21D;64715;44.760;37.678;2023-08-07T02:00:34;23.72;79.59
74923;HTU21D;64715;44.760;37.678;2023-08-07T02:01:35;23.71;79.75
74923;HTU21D;64715;44.760;37.678;2023-08-07T02:02:37;23.70;79.61
74923;HTU21D;64715;44.760;37.678;2023-08-07T02:03:38;23.69;79.60
74923;HTU21D;64715;44.760;37.678;2023-08-07T02:04:39;23.69;79.56
74923;HTU21D;64715;44.760;37.678;2023-08-07T02:05:40;23.68;79.66
74923;HTU21D;64715;44.760;37.678;2023-08-07T02:06:41;23.67;79.58
74923;HTU21D;64715;44.760;37.678;2023-08-07T02:07:42;23.66;79.73
74923;HTU21D;64715;44.760;37.678;2023-08-07T02:08:43;23.66;79.88
74923;HTU21D;64715;44.760;37.678;2023-08-07T02:09:46;23.66;79.96
74923;HTU21D;64715;44.760;37.678;2023-08-07T02:10:47;23.66;79.99
74923;HTU21D;64715;44.760;37.678;2023-08-07T02:11:48;23.65;80.14
74923;HTU21D;64715;44.760;37.678;2023-08-07T02:12:49;23.64;80.24
74923;HTU21D;64715;44.760;37.678;2023-08-07T02:13:50;23.66;80.40
74923;HTU21D;64715;44.760;37.678;2023-08-07T02:14:51;23.67;80.62
74923;HTU21D;64715;44.760;37.678;2023-08-07T02:15:52;23.66;80.61
74923;HTU21D;64715;44.760;37.678;2023-08-07T02:16:53;23.67;80.71
74923;HTU21D;64715;44.760;37.678;2023-08-07T02:17:54;23.67;80.78
74923;HTU21D;64715;44.760;37.678;2023-08-07T02:18:55;23.68;80.98
74923;HTU21D;64715;44.760;37.678;2023-08-07T02:19:56;23.69;81.07
74923;HTU21D;64715;44.760;37.678;2023-08-07T02:20:58;23.69;81.24
74923;HTU21D;64715;44.760;37.678;2023-08-07T02:21:59;23.68;81.10
74923;HTU21D;64715;44.760;37.678;2023-08-07T02:23:00;23.67;81.08
74923;HTU21D;64715;44.760;37.678;2023-08-07T02:24:02;23.68;80.94
74923;HTU21D;64715;44.760;37.678;2023-08-07T02:25:03;23.67;80.91
74923;HTU21D;64715;44.760;37.678;2023-08-07T02:26:04;23.67;81.00
74923;HTU21D;64715;44.760;37.678;2023-08-07T02:27:05;23.67;80.92
74923;HTU21D;64715;44.760;37.678;2023-08-07T02:28:06;23.66;80.83
74923;HTU21D;64715;44.760;37.678;2023-08-07T02:29:07;23.66;80.85
74923;HTU21D;64715;44.760;37.678;2023-08-07T02:30:09;23.67;80.77
74923;HTU21D;64715;44.760;37.678;2023-08-07T02:31:10;23.68;80.91
74923;HTU21D;64715;44.760;37.678;2023-08-07T02:32:11;23.68;80.86
74923;HTU21D;64715;44.760;37.678;2023-08-07T02:33:12;23.69;80.97
74923;HTU21D;64715;44.760;37.678;2023-08-07T02:34:14;23.70;80.93
74923;HTU21D;64715;44.760;37.678;2023-08-07T02:35:14;23.71;80.99
74923;HTU21D;64715;44.760;37.678;2023-08-07T02:36:15;23.73;81.14
74923;HTU21D;64715;44.760;37.678;2023-08-07T02:37:16;23.75;81.27
74923;HTU21D;64715;44.760;37.678;2023-08-07T02:38:18;23.76;81.34
74923;HTU21D;64715;44.760;37.678;2023-08-07T02:39:19;23.79;81.06
74923;HTU21D;64715;44.760;37.678;2023-08-07T02:40:20;23.80;81.15
74923;HTU21D;64715;44.760;37.678;2023-08-07T02:41:21;23.83;81.13
74923;HTU21D;64715;44.760;37.678;2023-08-07T02:42:22;23.86;81.20
74923;HTU21D;64715;44.760;37.678;2023-08-07T02:43:22;23.89;81.32
74923;HTU21D;64715;44.760;37.678;2023-08-07T02:44:23;23.91;81.36
74923;HTU21D;64715;44.760;37.678;2023-08-07T02:45:24;23.96;81.53
74923;HTU21D;64715;44.760;37.678;2023-08-07T02:46:25;24.00;81.59
74923;HTU21D;64715;44.760;37.678;2023-08-07T02:47:26;24.04;81.67
74923;HTU21D;64715;44.760;37.678;2023-08-07T02:48:27;24.11;81.85
74923;HTU21D;64715;44.760;37.678;2023-08-07T02:49:28;24.18;82.01
74923;HTU21D;64715;44.760;37.678;2023-08-07T02:50:29;24.29;82.17
74923;HTU21D;64715;44.760;37.678;2023-08-07T02:51:33;24.42;82.04
74923;HTU21D;64715;44.760;37.678;2023-08-07T02:52:34;24.50;81.96
74923;HTU21D;64715;44.760;37.678;2023-08-07T02:53:35;24.60;81.88
74923;HTU21D;64715;44.760;37.678;2023-08-07T02:54:36;24.72;82.01
74923;HTU21D;64715;44.760;37.678;2023-08-07T02:55:36;24.86;82.17
74923;HTU21D;64715;44.760;37.678;2023-08-07T02:56:37;25.03;82.04
74923;HTU21D;64715;44.760;37.678;2023-08-07T02:57:38;25.20;82.14
74923;HTU21D;64715;44.760;37.678;2023-08-07T02:58:39;25.39;81.94
74923;HTU21D;64715;44.760;37.678;2023-08-07T02:59:40;25.61;81.65
74923;HTU21D;64715;44.760;37.678;2023-08-07T03:00:41;25.83;81.28
74923;HTU21D;64715;44.760;37.678;2023-08-07T03:01:43;26.03;80.78
74923;HTU21D;64715;44.760;37.678;2023-08-07T03:02:44;26.25;80.35
74923;HTU21D;64715;44.760;37.678;2023-08-07T03:03:46;26.50;80.03
74923;HTU21D;64715;44.760;37.678;2023-08-07T03:04:46;26.72;79.59
74923;HTU21D;64715;44.760;37.678;2023-08-07T03:05:51;27.00;79.06
74923;HTU21D;64715;44.760;37.678;2023-08-07T03:06:52;27.25;78.51
74923;HTU21D;64715;44.760;37.678;2023-08-07T03:07:53;27.52;77.89
74923;HTU21D;64715;44.760;37.678;2023-08-07T03:08:54;27.80;77.17
74923;HTU21D;64715;44.760;37.678;2023-08-07T03:09:54;28.10;76.55
74923;HTU21D;64715;44.760;37.678;2023-08-07T03:10:57;28.40;75.81
74923;HTU21D;64715;44.760;37.678;2023-08-07T03:11:59;28.71;75.16
74923;HTU21D;64715;44.760;37.678;2023-08-07T03:13:03;29.01;74.24
74923;HTU21D;64715;44.760;37.678;2023-08-07T03:14:04;29.30;73.44
74923;HTU21D;64715;44.760;37.678;2023-08-07T03:15:06;29.58;72.83
74923;HTU21D;64715;44.760;37.678;2023-08-07T03:16:07;29.85;72.09
74923;HTU21D;64715;44.760;37.678;2023-08-07T03:17:09;30.13;71.26
74923;HTU21D;64715;44.760;37.678;2023-08-07T03:18:09;30.44;70.43
74923;HTU21D;64715;44.760;37.678;2023-08-07T03:19:11;30.72;69.60
74923;HTU21D;64715;44.760;37.678;2023-08-07T03:20:12;30.99;68.71
74923;HTU21D;64715;44.760;37.678;2023-08-07T03:21:12;31.27;67.84
74923;HTU21D;64715;44.760;37.678;2023-08-07T03:22:14;31.54;67.04
74923;HTU21D;64715;44.760;37.678;2023-08-07T03:23:16;31.81;66.27
74923;HTU21D;64715;44.760;37.678;2023-08-07T03:24:17;32.03;65.43
74923;HTU21D;64715;44.760;37.678;2023-08-07T03:25:18;32.27;64.53
74923;HTU21D;64715;44.760;37.678;2023-08-07T03:26:19;32.53;63.84
74923;HTU21D;64715;44.760;37.678;2023-08-07T03:27:21;32.76;63.10
74923;HTU21D;64715;44.760;37.678;2023-08-07T03:28:22;33.01;62.27
74923;HTU21D;64715;44.760;37.678;2023-08-07T03:29:23;33.21;61.67
74923;HTU21D;64715;44.760;37.678;2023-08-07T03:30:24;33.44;60.82
74923;HTU21D;64715;44.760;37.678;2023-08-07T03:31:26;33.64;60.13
74923;HTU21D;64715;44.760;37.678;2023-08-07T03:32:27;33.87;59.51
74923;HTU21D;64715;44.760;37.678;2023-08-07T03:33:29;34.11;58.67
74923;HTU21D;64715;44.760;37.678;2023-08-07T03:34:30;34.31;57.88
74923;HTU21D;64715;44.760;37.678;2023-08-07T03:35:31;34.52;57.41
74923;HTU21D;64715;44.760;37.678;2023-08-07T03:36:32;34.74;56.64
74923;HTU21D;64715;44.760;37.678;2023-08-07T03:37:33;34.95;55.98
74923;HTU21D;64715;44.760;37.678;2023-08-07T03:38:34;35.20;55.27
74923;HTU21D;64715;44.760;37.678;2023-08-07T03:39:35;35.40;54.60
74923;HTU21D;64715;44.760;37.678;2023-08-07T03:40:36;35.59;53.92
74923;HTU21D;64715;44.760;37.678;2023-08-07T03:41:38;35.78;53.26
74923;HTU21D;64715;44.760;37.678;2023-08-07T03:42:40;35.93;52.71
74923;HTU21D;64715;44.760;37.678;2023-08-07T03:43:42;36.08;52.12
74923;HTU21D;64715;44.760;37.678;2023-08-07T03:44:44;36.22;51.64
74923;HTU21D;64715;44.760;37.678;2023-08-07T03:45:46;36.34;51.27
74923;HTU21D;64715;44.760;37.678;2023-08-07T03:46:48;36.51;50.76
74923;HTU21D;64715;44.760;37.678;2023-08-07T03:47:49;36.62;50.14
74923;HTU21D;64715;44.760;37.678;2023-08-07T03:48:50;36.75;49.76
74923;HTU21D;64715;44.760;37.678;2023-08-07T03:49:52;36.86;49.16
74923;HTU21D;64715;44.760;37.678;2023-08-07T03:51:10;36.96;48.87
74923;HTU21D;64715;44.760;37.678;2023-08-07T03:52:19;37.05;48.65
74923;HTU21D;64715;44.760;37.678;2023-08-07T03:53:21;37.13;48.08
74923;HTU21D;64715;44.760;37.678;2023-08-07T03:54:23;37.21;47.64
74923;HTU21D;64715;44.760;37.678;2023-08-07T03:55:24;37.28;47.31
74923;HTU21D;64715;44.760;37.678;2023-08-07T03:56:25;37.35;46.92
74923;HTU21D;64715;44.760;37.678;2023-08-07T03:57:26;37.43;46.66
74923;HTU21D;64715;44.760;37.678;2023-08-07T03:58:26;37.50;46.35
74923;HTU21D;64715;44.760;37.678;2023-08-07T03:59:28;37.60;46.14
74923;HTU21D;64715;44.760;37.678;2023-08-07T04:00:29;37.71;45.85
74923;HTU21D;64715;44.760;37.678;2023-08-07T04:01:30;37.86;45.54
74923;HTU21D;64715;44.760;37.678;2023-08-07T04:02:31;38.02;45.24
74923;HTU21D;64715;44.760;37.678;2023-08-07T04:03:32;38.20;44.93
74923;HTU21D;64715;44.760;37.678;2023-08-07T04:04:34;38.38;44.53
74923;HTU21D;64715;44.760;37.678;2023-08-07T04:05:35;38.59;44.11
74923;HTU21D;64715;44.760;37.678;2023-08-07T04:06:36;38.78;43.61
74923;HTU21D;64715;44.760;37.678;2023-08-07T04:07:37;38.94;43.05
74923;HTU21D;64715;44.760;37.678;2023-08-07T04:08:38;39.09;42.78
74923;HTU21D;64715;44.760;37.678;2023-08-07T04:09:39;39.25;42.21
74923;HTU21D;64715;44.760;37.678;2023-08-07T04:10:40;39.37;41.89
74923;HTU21D;64715;44.760;37.678;2023-08-07T04:11:42;39.48;41.36
74923;HTU21D;64715;44.760;37.678;2023-08-07T04:12:42;39.53;41.18
74923;HTU21D;64715;44.760;37.678;2023-08-07T04:13:44;39.61;40.94
74923;HTU21D;64715;44.760;37.678;2023-08-07T04:14:45;39.69;40.61
74923;HTU21D;64715;44.760;37.678;2023-08-07T04:15:46;39.78;40.37
74923;HTU21D;64715;44.760;37.678;2023-08-07T04:16:46;39.85;39.94
74923;HTU21D;64715;44.760;37.678;2023-08-07T04:17:47;39.95;39.70
74923;HTU21D;64715;44.760;37.678;2023-08-07T04:18:48;40.02;39.56
74923;HTU21D;64715;44.760;37.678;2023-08-07T04:19:49;40.14;39.24
74923;HTU21D;64715;44.760;37.678;2023-08-07T04:20:53;40.23;38.83
74923;HTU21D;64715;44.760;37.678;2023-08-07T04:21:54;40.30;38.74
74923;HTU21D;64715;44.760;37.678;2023-08-07T04:22:55;40.32;38.40
74923;HTU21D;64715;44.760;37.678;2023-08-07T04:23:57;40.36;38.18
74923;HTU21D;64715;44.760;37.678;2023-08-07T04:24:58;40.36;38.08
74923;HTU21D;64715;44.760;37.678;2023-08-07T04:26:00;40.37;37.94
74923;HTU21D;64715;44.760;37.678;2023-08-07T04:27:01;40.35;37.87
74923;HTU21D;64715;44.760;37.678;2023-08-07T04:28:02;40.32;37.91
74923;HTU21D;64715;44.760;37.678;2023-08-07T04:29:03;40.31;37.81
74923;HTU21D;64715;44.760;37.678;2023-08-07T04:30:05;40.37;37.74
74923;HTU21D;64715;44.760;37.678;2023-08-07T04:31:07;40.38;37.52
74923;HTU21D;64715;44.760;37.678;2023-08-07T04:32:08;40.37;37.41
74923;HTU21D;64715;44.760;37.678;2023-08-07T04:33:09;40.35;37.55
74923;HTU21D;64715;44.760;37.678;2023-08-07T04:34:10;40.39;37.41
74923;HTU21D;64715;44.760;37.678;2023-08-07T04:35:13;40.40;37.40
74923;HTU21D;64715;44.760;37.678;2023-08-07T04:36:14;40.44;37.24
74923;HTU21D;64715;44.760;37.678;2023-08-07T04:37:15;40.43;37.05
74923;HTU21D;64715;44.760;37.678;2023-08-07T04:38:16;40.36;37.14
74923;HTU21D;64715;44.760;37.678;2023-08-07T04:39:17;40.30;37.14
74923;HTU21D;64715;44.760;37.678;2023-08-07T04:40:19;40.27;37.18
74923;HTU21D;64715;44.760;37.678;2023-08-07T04:41:20;40.27;37.15
74923;HTU21D;64715;44.760;37.678;2023-08-07T04:42:21;40.31;37.28
74923;HTU21D;64715;44.760;37.678;2023-08-07T04:43:22;40.40;37.21
74923;HTU21D;64715;44.760;37.678;2023-08-07T04:44:23;40.53;37.01
74923;HTU21D;64715;44.760;37.678;2023-08-07T04:45:24;40.60;36.72
74923;HTU21D;64715;44.760;37.678;2023-08-07T04:46:25;40.67;36.57
74923;HTU21D;64715;44.760;37.678;2023-08-07T04:47:28;40.77;36.28
74923;HTU21D;64715;44.760;37.678;2023-08-07T04:48:29;40.84;35.96
74923;HTU21D;64715;44.760;37.678;2023-08-07T04:49:30;40.86;35.66
74923;HTU21D;64715;44.760;37.678;2023-08-07T04:50:31;40.84;35.63
74923;HTU21D;64715;44.760;37.678;2023-08-07T04:51:31;40.87;35.40
74923;HTU21D;64715;44.760;37.678;2023-08-07T04:52:32;40.84;35.22
74923;HTU21D;64715;44.760;37.678;2023-08-07T04:53:33;40.80;35.05
74923;HTU21D;64715;44.760;37.678;2023-08-07T04:54:34;40.58;35.09
74923;HTU21D;64715;44.760;37.678;2023-08-07T04:55:35;40.28;35.23
74923;HTU21D;64715;44.760;37.678;2023-08-07T04:56:36;39.89;35.57
74923;HTU21D;64715;44.760;37.678;2023-08-07T04:57:37;39.47;36.00
74923;HTU21D;64715;44.760;37.678;2023-08-07T04:58:38;38.98;36.47
74923;HTU21D;64715;44.760;37.678;2023-08-07T04:59:39;38.50;37.01
74923;HTU21D;64715;44.760;37.678;2023-08-07T05:00:40;38.02;37.80
74923;HTU21D;64715;44.760;37.678;2023-08-07T05:01:41;37.64;38.50
74923;HTU21D;64715;44.760;37.678;2023-08-07T05:02:42;37.30;39.14
74923;HTU21D;64715;44.760;37.678;2023-08-07T05:03:43;36.96;39.77
74923;HTU21D;64715;44.760;37.678;2023-08-07T05:04:44;36.62;40.32
74923;HTU21D;64715;44.760;37.678;2023-08-07T05:05:46;36.33;41.00
74923;HTU21D;64715;44.760;37.678;2023-08-07T05:06:46;36.09;41.45
74923;HTU21D;64715;44.760;37.678;2023-08-07T05:07:49;35.77;41.99
74923;HTU21D;64715;44.760;37.678;2023-08-07T05:08:50;35.47;42.60
74923;HTU21D;64715;44.760;37.678;2023-08-07T05:09:51;35.18;43.19
74923;HTU21D;64715;44.760;37.678;2023-08-07T05:10:52;34.92;43.81
74923;HTU21D;64715;44.760;37.678;2023-08-07T05:11:53;34.67;44.65
74923;HTU21D;64715;44.760;37.678;2023-08-07T05:12:54;34.59;45.19
74923;HTU21D;64715;44.760;37.678;2023-08-07T05:13:58;34.48;45.16
74923;HTU21D;64715;44.760;37.678;2023-08-07T05:15:00;34.30;45.57
74923;HTU21D;64715;44.760;37.678;2023-08-07T05:16:01;34.11;45.90
74923;HTU21D;64715;44.760;37.678;2023-08-07T05:17:02;33.95;46.42
74923;HTU21D;64715;44.760;37.678;2023-08-07T05:18:03;33.80;46.82
74923;HTU21D;64715;44.760;37.678;2023-08-07T05:19:04;33.64;47.20
74923;HTU21D;64715;44.760;37.678;2023-08-07T05:20:05;33.52;47.79
74923;HTU21D;64715;44.760;37.678;2023-08-07T05:21:06;33.49;47.96
74923;HTU21D;64715;44.760;37.678;2023-08-07T05:22:09;33.44;48.12
74923;HTU21D;64715;44.760;37.678;2023-08-07T05:23:10;33.36;48.44
74923;HTU21D;64715;44.760;37.678;2023-08-07T05:24:11;33.27;48.66
74923;HTU21D;64715;44.760;37.678;2023-08-07T05:25:13;33.17;48.93
74923;HTU21D;64715;44.760;37.678;2023-08-07T05:26:16;33.05;49.21
74923;HTU21D;64715;44.760;37.678;2023-08-07T05:27:17;32.96;49.34
74923;HTU21D;64715;44.760;37.678;2023-08-07T05:28:18;32.82;49.64
74923;HTU21D;64715;44.760;37.678;2023-08-07T05:29:19;32.66;50.05
74923;HTU21D;64715;44.760;37.678;2023-08-07T05:30:20;32.50;50.42
74923;HTU21D;64715;44.760;37.678;2023-08-07T05:31:21;32.35;50.84
74923;HTU21D;64715;44.760;37.678;2023-08-07T05:32:22;32.26;51.27
74923;HTU21D;64715;44.760;37.678;2023-08-07T05:33:23;32.15;51.60
74923;HTU21D;64715;44.760;37.678;2023-08-07T05:34:24;32.04;51.81
74923;HTU21D;64715;44.760;37.678;2023-08-07T05:35:25;31.95;52.14
74923;HTU21D;64715;44.760;37.678;2023-08-07T05:36:26;31.84;52.49
74923;HTU21D;64715;44.760;37.678;2023-08-07T05:37:27;31.79;52.80
74923;HTU21D;64715;44.760;37.678;2023-08-07T05:38:30;31.76;53.24
74923;HTU21D;64715;44.760;37.678;2023-08-07T05:39:31;31.78;53.27
74923;HTU21D;64715;44.760;37.678;2023-08-07T05:40:32;31.78;53.28
74923;HTU21D;64715;44.760;37.678;2023-08-07T05:41:34;31.81;53.68
74923;HTU21D;64715;44.760;37.678;2023-08-07T05:42:35;31.86;53.90
74923;HTU21D;64715;44.760;37.678;2023-08-07T05:43:36;31.95;54.23
74923;HTU21D;64715;44.760;37.678;2023-08-07T05:44:37;32.13;54.20
74923;HTU21D;64715;44.760;37.678;2023-08-07T05:45:38;32.32;53.92
74923;HTU21D;64715;44.760;37.678;2023-08-07T05:46:39;32.48;53.62
74923;HTU21D;64715;44.760;37.678;2023-08-07T05:47:40;32.59;53.18
74923;HTU21D;64715;44.760;37.678;2023-08-07T05:48:41;32.67;52.88
74923;HTU21D;64715;44.760;37.678;2023-08-07T05:49:42;32.69;52.79
74923;HTU21D;64715;44.760;37.678;2023-08-07T05:50:43;32.69;52.68
74923;HTU21D;64715;44.760;37.678;2023-08-07T05:51:44;32.71;52.87
74923;HTU21D;64715;44.760;37.678;2023-08-07T05:52:45;32.73;52.84
74923;HTU21D;64715;44.760;37.678;2023-08-07T05:53:46;32.72;52.85
74923;HTU21D;64715;44.760;37.678;2023-08-07T05:54:47;32.71;52.78
74923;HTU21D;64715;44.760;37.678;2023-08-07T05:55:48;32.66;52.73
74923;HTU21D;64715;44.760;37.678;2023-08-07T05:56:49;32.60;52.93
74923;HTU21D;64715;44.760;37.678;2023-08-07T05:57:50;32.57;53.17
74923;HTU21D;64715;44.760;37.678;2023-08-07T05:58:51;32.60;53.38
74923;HTU21D;64715;44.760;37.678;2023-08-07T05:59:52;32.64;53.34
74923;HTU21D;64715;44.760;37.678;2023-08-07T06:00:53;32.71;53.59
74923;HTU21D;64715;44.760;37.678;2023-08-07T06:01:53;32.82;53.72
74923;HTU21D;64715;44.760;37.678;2023-08-07T06:02:55;32.94;53.65
74923;HTU21D;64715;44.760;37.678;2023-08-07T06:03:57;33.03;53.33
74923;HTU21D;64715;44.760;37.678;2023-08-07T06:04:58;33.07;53.21
74923;HTU21D;64715;44.760;37.678;2023-08-07T06:05:59;33.12;53.05
74923;HTU21D;64715;44.760;37.678;2023-08-07T06:07:00;33.14;52.86
74923;HTU21D;64715;44.760;37.678;2023-08-07T06:08:01;33.13;52.79
74923;HTU21D;64715;44.760;37.678;2023-08-07T06:09:02;33.13;52.65
74923;HTU21D;64715;44.760;37.678;2023-08-07T06:10:05;33.12;52.48
74923;HTU21D;64715;44.760;37.678;2023-08-07T06:11:06;33.08;52.39
74923;HTU21D;64715;44.760;37.678;2023-08-07T06:12:08;33.04;52.31
74923;HTU21D;64715;44.760;37.678;2023-08-07T06:13:09;32.98;52.32
74923;HTU21D;64715;44.760;37.678;2023-08-07T06:14:10;32.93;52.28
74923;HTU21D;64715;44.760;37.678;2023-08-07T06:15:11;32.89;52.43
74923;HTU21D;64715;44.760;37.678;2023-08-07T06:16:12;32.85;52.78
74923;HTU21D;64715;44.760;37.678;2023-08-07T06:17:13;32.83;52.82
74923;HTU21D;64715;44.760;37.678;2023-08-07T06:18:14;32.79;52.78
74923;HTU21D;64715;44.760;37.678;2023-08-07T06:19:15;32.78;52.79